Tar Heel, NC (28392)

5:58 PM EDT on May 22, 2015 (GMT -0400)
Cape Owen Manor | | Change Station
CLOSE
Current Station
Personal Weather Station
Location: Elizabethtown, NC
Elevation: 151 ft
Nearby Weather Stations

Elev 151 ft 34.69 °N, 78.69 °W | Updated 13 minutes ago

Clear
Clear
75.2 °F
Feels Like 78 °F
N
3.8
Wind Variable Wind from NNW

Today
High -- | Low -- °F
--% Chance of Precip.
Yesterday
High -- | Low -- °F
Precip. -- in
6:07 AM 8:16 PM
Waxing Crescent, 24% visible
Pressure 30.17 in
Visibility 10.0 miles
Clouds Clear
Heat Index 78 °F
Dew Point 50 °F
Humidity 41%
Rainfall in
Snow Depth Not available.
UV 3 out of 12
Pollen 8.00 out of 12
Air Quality Not available.
Flu Activity No Activity
METAR KLBT 222154Z AUTO VRB05KT 10SM CLR 25/09 A3017 RMK AO2 SLP216 T02500089

More Conditions Fewer Conditions

Pressure 30.17 in
Visibility 10.0 miles
Clouds Clear
Heat Index 78 °F
Dew Point 50 °F
Humidity 41%
Rainfall in
Snow Depth Not available.
UV 3 out of 12
Pollen 8.00 out of 12
Air Quality Not available.
Flu Activity No Activity
METAR KLBT 222154Z AUTO VRB05KT 10SM CLR 25/09 A3017 RMK AO2 SLP216 T02500089

More Conditions Fewer Conditions

10-Day Weather Forecast

Almanac

Astronomy

May. 22, 2015 Rise Set
Actual Time
Civil Twilight
Nautical Twilight
Astronomical Twilight
Moon
Length of Visible Light
Length of Day
Tomorrow will be .
, % of the Moon is Illuminated

Today's Extremes

State Highs State Lows

Community

WunderPhotos

Upload Photos

1,823,317 photos uploaded!

WunderBlogs® & News

Nearby

Air Quality

  Air Quality AQ Index Pollutant
Not available.

Snow Depth

Station Depth Elevation

Earthquake Activity

City Distance Mag. Time & Date
Minimum magnitude displayed is 2.5.

Coastal Water Temperatures

Place Temperature

Stations

Nearby Weather Stations

Station Location Temp. Windchill Dew Point Humidity Wind Precip. Elev Updated Type